createdAt,value
2023-02-09T00:00:00.000Z,13.36
2023-02-09T00:15:00.000Z,11.44
2023-02-09T00:30:00.000Z,9.85
2023-02-09T00:45:00.000Z,8.38
2023-02-09T01:00:00.000Z,7.45
2023-02-09T01:15:00.000Z,7.03
2023-02-09T01:30:00.000Z,6.31
2023-02-09T01:45:00.000Z,6.75
2023-02-09T02:00:00.000Z,6.09
2023-02-09T02:15:00.000Z,5.21
2023-02-09T02:30:00.000Z,6.41
2023-02-09T02:45:00.000Z,12.55
2023-02-09T03:00:00.000Z,18
2023-02-09T03:15:00.000Z,18.85
2023-02-09T03:30:00.000Z,19.85
2023-02-09T03:45:00.000Z,25
2023-02-09T04:00:00.000Z,21.1
2023-02-09T04:15:00.000Z,20.35
2023-02-09T04:30:00.000Z,21.18
2023-02-09T04:45:00.000Z,21.8
2023-02-09T05:00:00.000Z,29.12
2023-02-09T05:15:00.000Z,27.62
2023-02-09T05:30:00.000Z,27.6
2023-02-09T05:45:00.000Z,27.38
2023-02-09T06:00:00.000Z,28.02
2023-02-09T06:15:00.000Z,27.18
2023-02-09T06:30:00.000Z,27.53
2023-02-09T06:45:00.000Z,27.74
2023-02-09T07:00:00.000Z,24.02
2023-02-09T07:15:00.000Z,24.74
2023-02-09T07:30:00.000Z,19.68
2023-02-09T07:45:00.000Z,16.55
2023-02-09T08:00:00.000Z,15.82
2023-02-09T08:15:00.000Z,12.39
2023-02-09T08:30:00.000Z,12.84
2023-02-09T08:45:00.000Z,10.67
2023-02-09T09:00:00.000Z,8.01
2023-02-09T09:15:00.000Z,7.8
2023-02-09T09:30:00.000Z,7.68
2023-02-09T09:45:00.000Z,6.76
2023-02-09T10:00:00.000Z,5.72
2023-02-09T10:15:00.000Z,6.14
2023-02-09T10:30:00.000Z,5.59
2023-02-09T10:45:00.000Z,6.64
2023-02-09T11:00:00.000Z,6.68
2023-02-09T11:15:00.000Z,7.32
2023-02-09T11:30:00.000Z,7.07
2023-02-09T11:45:00.000Z,7.29
2023-02-09T12:00:00.000Z,7.4
2023-02-09T12:15:00.000Z,9.93
2023-02-09T12:30:00.000Z,10.61
2023-02-09T12:45:00.000Z,12.29
2023-02-09T13:00:00.000Z,11.73
2023-02-09T13:15:00.000Z,13.67
2023-02-09T13:30:00.000Z,14.53
2023-02-09T13:45:00.000Z,15.33
2023-02-09T14:00:00.000Z,14.15
2023-02-09T14:15:00.000Z,16.32
2023-02-09T14:30:00.000Z,18.88
2023-02-09T14:45:00.000Z,17.72
2023-02-09T15:00:00.000Z,18.14
2023-02-09T15:15:00.000Z,21.22
2023-02-09T15:30:00.000Z,20.05
2023-02-09T15:45:00.000Z,25.44
2023-02-09T16:00:00.000Z,28.64
2023-02-09T16:15:00.000Z,27.05
2023-02-09T16:30:00.000Z,23.58
2023-02-09T16:45:00.000Z,25.95
2023-02-09T17:00:00.000Z,27.35
2023-02-09T17:15:00.000Z,26.51
2023-02-09T17:30:00.000Z,25.66
2023-02-09T17:45:00.000Z,22.79
2023-02-09T18:00:00.000Z,20.21
2023-02-09T18:15:00.000Z,26.41
2023-02-09T18:30:00.000Z,26.62
2023-02-09T18:45:00.000Z,26.44
2023-02-09T19:00:00.000Z,20.72
2023-02-09T19:15:00.000Z,21.39
2023-02-09T19:30:00.000Z,21.8
2023-02-09T19:45:00.000Z,22.88
2023-02-09T20:00:00.000Z,18.04
2023-02-09T20:15:00.000Z,15.67
2023-02-09T20:30:00.000Z,13.65
2023-02-09T20:45:00.000Z,13.65
2023-02-09T21:00:00.000Z,13.72
2023-02-09T21:15:00.000Z,13.12
2023-02-09T21:30:00.000Z,13.02
2023-02-09T21:45:00.000Z,11.19
2023-02-09T22:00:00.000Z,10.49
2023-02-09T22:15:00.000Z,10.56
2023-02-09T22:30:00.000Z,10.45
2023-02-09T22:45:00.000Z,10.08
2023-02-09T23:00:00.000Z,10.08
2023-02-09T23:15:00.000Z,9.52
2023-02-09T23:30:00.000Z,9.31
2023-02-09T23:45:00.000Z,9.29
